Time;durP1;ratioP1;P1;durP2;ratioP2;P2;SDS_P1;SDS_P2;PMS_P1;PMS_P2;Temp;Humidity;BMP_temperature;BMP_pressure;BME280_temperature;BME280_humidity;BME280_pressure;Samples;Min_cycle;Max_cycle;Signal;HPM_P1;HPM_P2
2023/02/22 00:02:24;;;;;;;7.80;5.80;;;;;;;6.86;77.65;95382.04;106578;1276;25364;-70
2023/02/22 00:04:53;;;;;;;6.10;5.10;;;;;;;6.89;77.86;95378.35;106624;1276;25216;-70
2023/02/22 00:07:22;;;;;;;7.00;4.60;;;;;;;6.87;77.66;95376.27;106600;1276;22548;-70
2023/02/22 00:09:50;;;;;;;6.30;4.90;;;;;;;6.84;77.55;95379.78;106640;1276;25423;-70
2023/02/22 00:12:19;;;;;;;5.90;4.50;;;;;;;6.84;77.62;95386.26;106632;1276;22524;-70
2023/02/22 00:14:47;;;;;;;5.30;4.20;;;;;;;6.83;78.07;95388.00;106610;1276;22531;-70
2023/02/22 00:17:15;;;;;;;5.50;4.80;;;;;;;6.77;77.75;95387.52;106595;1273;22578;-70
2023/02/22 00:19:44;;;;;;;4.90;4.30;;;;;;;6.71;78.23;95388.62;106594;1276;22682;-70
2023/02/22 00:22:12;;;;;;;8.00;5.40;;;;;;;6.68;78.17;95391.79;106551;1276;25205;-70
2023/02/22 00:24:40;;;;;;;6.20;4.30;;;;;;;6.69;78.44;95390.73;106574;1276;22805;-70
2023/02/22 00:27:08;;;;;;;5.90;5.30;;;;;;;6.71;78.67;95391.58;106546;1276;22524;-70
2023/02/22 00:29:37;;;;;;;6.80;4.90;;;;;;;6.71;78.63;95388.62;106565;1276;25399;-70
2023/02/22 00:32:06;;;;;;;8.30;6.50;;;;;;;6.76;78.72;95387.36;106696;1276;23898;-70
2023/02/22 00:34:34;;;;;;;7.70;6.60;;;;;;;6.82;78.69;95384.35;106569;1276;26509;-70
2023/02/22 00:37:03;;;;;;;7.40;5.90;;;;;;;6.88;78.63;95385.17;106561;1276;22635;-70
2023/02/22 00:39:31;;;;;;;14.00;9.50;;;;;;;6.94;78.41;95386.52;106650;1276;25316;-70
2023/02/22 00:41:59;;;;;;;12.70;8.40;;;;;;;7.00;78.41;95384.73;106638;1276;22605;-70
2023/02/22 00:44:29;;;;;;;9.30;6.50;;;;;;;7.06;78.25;95390.81;106634;1263;22524;-70
2023/02/22 00:46:57;;;;;;;6.70;5.60;;;;;;;7.05;77.77;95391.69;106587;1273;22527;-70
2023/02/22 00:49:25;;;;;;;5.90;4.70;;;;;;;7.02;78.03;95397.30;106591;1276;22542;-70
2023/02/22 00:51:53;;;;;;;6.80;5.40;;;;;;;6.99;78.08;95396.99;106561;1276;24237;-70
2023/02/22 00:54:22;;;;;;;9.90;5.70;;;;;;;6.96;78.06;95391.06;106600;1276;22655;-71
2023/02/22 00:56:50;;;;;;;6.60;5.90;;;;;;;6.96;78.29;95391.24;106525;1276;25312;-70
2023/02/22 00:59:18;;;;;;;7.10;6.20;;;;;;;7.00;78.34;95393.13;106645;1276;25288;-70
2023/02/22 01:01:47;;;;;;;5.90;4.70;;;;;;;7.02;78.31;95386.98;106622;1276;22649;-70
2023/02/22 01:04:15;;;;;;;7.50;4.50;;;;;;;7.01;78.09;95388.21;106542;1276;22536;-70
2023/02/22 01:06:43;;;;;;;7.30;5.70;;;;;;;6.97;78.00;95388.61;106560;1276;22789;-71
2023/02/22 01:09:11;;;;;;;5.70;4.90;;;;;;;6.93;77.94;95378.84;106654;1276;22516;-70
2023/02/22 01:11:41;;;;;;;6.70;5.20;;;;;;;6.91;77.73;95380.25;106602;1276;25217;-70
2023/02/22 01:14:10;;;;;;;6.00;5.40;;;;;;;6.85;77.48;95380.64;106548;1276;25380;-70
2023/02/22 01:16:38;;;;;;;7.30;5.10;;;;;;;6.76;77.38;95381.95;106570;1276;25335;-70
2023/02/22 01:19:06;;;;;;;6.90;5.10;;;;;;;6.69;77.58;95381.30;106561;1276;24351;-70
2023/02/22 01:21:34;;;;;;;7.40;5.50;;;;;;;6.64;77.61;95387.10;106548;1276;22534;-70
2023/02/22 01:24:03;;;;;;;7.00;5.00;;;;;;;6.58;77.45;95387.14;106568;1276;23061;-70
2023/02/22 01:26:31;;;;;;;8.00;4.70;;;;;;;6.50;77.84;95391.56;106603;1276;25297;-70
2023/02/22 01:28:59;;;;;;;6.40;5.30;;;;;;;6.38;77.65;95388.65;106592;1276;24407;-70
2023/02/22 01:31:28;;;;;;;7.30;5.10;;;;;;;6.31;77.67;95392.89;106618;1276;24340;-70
2023/02/22 01:33:56;;;;;;;8.10;5.50;;;;;;;6.28;77.73;95391.33;106593;1276;22697;-71
2023/02/22 01:36:24;;;;;;;5.80;4.40;;;;;;;6.24;78.17;95389.78;106613;1276;22948;-70
2023/02/22 01:38:52;;;;;;;7.20;5.40;;;;;;;6.18;79.20;95391.02;106574;1276;24277;-70
2023/02/22 01:41:21;;;;;;;6.50;5.40;;;;;;;6.14;79.42;95389.48;106622;1276;22761;-69
2023/02/22 01:43:49;;;;;;;8.50;6.00;;;;;;;6.11;79.35;95389.66;106629;1276;23915;-70
2023/02/22 01:46:22;;;;;;;6.70;4.80;;;;;;;6.09;79.52;95388.81;106587;1275;22657;-70
2023/02/22 01:48:50;;;;;;;8.70;5.20;;;;;;;6.04;79.75;95388.13;106597;1276;24207;-70
2023/02/22 01:51:27;;;;;;;7.50;5.80;;;;;;;6.01;80.13;95390.59;106566;1276;24196;-70
2023/02/22 01:54:08;;;;;;;7.00;6.30;;;;;;;5.99;79.49;95389.02;106552;1276;24904;-70
2023/02/22 01:56:40;;;;;;;7.90;5.70;;;;;;;6.02;79.84;95389.36;106608;1276;22523;-70
2023/02/22 01:59:10;;;;;;;7.70;5.90;;;;;;;6.02;79.75;95386.21;106628;1276;24205;-69
2023/02/22 02:01:44;;;;;;;8.50;5.50;;;;;;;6.04;79.70;95386.21;106612;1276;22525;-70
2023/02/22 02:04:19;;;;;;;6.70;4.60;;;;;;;6.00;79.62;95386.06;106577;1276;25615;-70
2023/02/22 02:06:47;;;;;;;6.40;5.00;;;;;;;6.00;79.65;95385.17;106598;1276;22533;-70
2023/02/22 02:09:44;;;;;;;6.20;4.40;;;;;;;6.05;79.94;95380.80;106610;1276;24442;-70
2023/02/22 02:12:16;;;;;;;7.90;5.80;;;;;;;6.08;79.72;95384.97;106513;1276;22573;-70
2023/02/22 02:14:44;;;;;;;8.20;4.60;;;;;;;6.07;79.90;95385.31;106558;1276;25281;-70
2023/02/22 02:17:15;;;;;;;7.60;5.00;;;;;;;6.06;79.83;95383.77;106602;1276;25499;-70
2023/02/22 02:20:12;;;;;;;5.60;4.40;;;;;;;6.14;80.16;95391.05;106645;1276;22527;-70
2023/02/22 02:22:51;;;;;;;6.20;4.80;;;;;;;6.21;80.06;95391.54;106574;1276;22585;-70
2023/02/22 02:25:33;;;;;;;6.60;4.80;;;;;;;6.24;79.93;95394.84;106647;1276;24339;-70
2023/02/22 02:28:15;;;;;;;7.20;5.00;;;;;;;6.23;79.87;95395.38;106622;1254;25498;-69
2023/02/22 02:30:43;;;;;;;8.30;4.50;;;;;;;6.24;80.02;95394.67;106603;1276;25713;-70
2023/02/22 02:33:11;;;;;;;5.40;4.50;;;;;;;6.25;80.43;95397.11;106745;1276;22521;-70
2023/02/22 02:36:09;;;;;;;5.20;4.50;;;;;;;6.28;80.27;95399.01;106664;1276;24292;-70
2023/02/22 02:39:04;;;;;;;5.50;4.60;;;;;;;6.35;80.26;95402.29;106588;1275;22592;-70
2023/02/22 02:41:50;;;;;;;5.00;4.30;;;;;;;6.35;79.97;95400.55;106803;1276;24344;-70
2023/02/22 02:44:31;;;;;;;4.40;3.70;;;;;;;6.33;79.98;95396.20;106535;1276;22779;-70
2023/02/22 02:47:10;;;;;;;5.20;4.60;;;;;;;6.32;79.73;95394.98;106610;1276;22523;-70
2023/02/22 02:49:59;;;;;;;6.20;4.10;;;;;;;6.33;80.10;95400.39;106890;1276;22535;-70
2023/02/22 02:52:29;;;;;;;5.10;4.30;;;;;;;6.28;80.30;95405.83;106874;1276;25325;-70
2023/02/22 02:54:59;;;;;;;5.30;4.70;;;;;;;6.23;79.96;95409.35;106890;1276;22641;-70
2023/02/22 02:57:27;;;;;;;7.50;5.00;;;;;;;6.24;80.27;95410.04;106720;1276;22680;-70
2023/02/22 02:59:56;;;;;;;7.00;5.50;;;;;;;6.25;80.28;95410.91;106567;1276;22647;-70
2023/02/22 03:02:36;;;;;;;18.00;10.10;;;;;;;6.28;80.42;95412.11;106599;1276;22689;-70
2023/02/22 03:05:25;;;;;;;24.10;11.40;;;;;;;6.26;80.63;95413.52;106685;1276;22532;-70
2023/02/22 03:08:17;;;;;;;21.40;10.40;;;;;;;6.22;80.54;95419.30;106487;1276;22531;-70
2023/02/22 03:11:13;;;;;;;9.60;7.20;;;;;;;6.15;80.32;95422.84;106849;1276;22526;-70
2023/02/22 03:14:21;;;;;;;6.00;4.80;;;;;;;6.16;81.03;95423.17;106882;1276;22558;-71
2023/02/22 03:16:57;;;;;;;9.00;6.70;;;;;;;6.17;81.30;95421.95;106702;1276;24776;-70
2023/02/22 03:19:43;;;;;;;9.40;7.00;;;;;;;6.19;80.91;95425.25;106655;1266;24593;-70
2023/02/22 03:22:19;;;;;;;13.40;7.40;;;;;;;6.23;80.87;95426.82;106633;1276;25291;-70
2023/02/22 03:24:51;;;;;;;9.90;6.80;;;;;;;6.23;81.18;95426.46;106590;1276;24363;-70
2023/02/22 03:27:42;;;;;;;6.60;5.60;;;;;;;6.21;81.22;95427.16;106552;1276;24192;-70
2023/02/22 03:30:22;;;;;;;7.30;5.40;;;;;;;6.17;81.27;95429.29;106584;1276;25374;-71
2023/02/22 03:33:06;;;;;;;7.50;5.60;;;;;;;6.13;80.99;95428.95;106590;1276;24081;-71
2023/02/22 03:35:49;;;;;;;8.40;6.10;;;;;;;6.14;81.23;95437.33;106513;1276;22540;-71
2023/02/22 03:38:19;;;;;;;12.10;7.10;;;;;;;6.12;80.63;95436.65;106546;1276;22540;-71
2023/02/22 03:40:53;;;;;;;10.40;7.10;;;;;;;6.12;80.34;95437.50;106501;1276;23008;-70
2023/02/22 03:43:26;;;;;;;8.10;6.00;;;;;;;6.15;80.08;95440.64;106539;1276;25472;-70
2023/02/22 03:45:57;;;;;;;6.50;5.60;;;;;;;6.17;79.58;95436.96;106536;1276;25401;-71
2023/02/22 03:48:30;;;;;;;7.20;5.40;;;;;;;6.21;79.47;95442.53;106535;1276;24084;-71
2023/02/22 03:51:03;;;;;;;7.60;5.80;;;;;;;6.23;79.21;95444.63;106871;1276;22756;-69
2023/02/22 03:53:36;;;;;;;7.90;5.70;;;;;;;6.24;79.16;95443.58;106626;1276;25223;-71
2023/02/22 03:56:09;;;;;;;8.20;5.00;;;;;;;6.28;79.01;95442.52;106606;1276;24346;-70
2023/02/22 03:58:43;;;;;;;8.10;6.00;;;;;;;6.33;79.13;95438.13;106539;1276;25390;-71
2023/02/22 04:01:11;;;;;;;6.60;5.40;;;;;;;6.38;79.24;95441.41;106569;1276;22522;-70
2023/02/22 04:03:41;;;;;;;5.90;4.90;;;;;;;6.40;79.10;95441.59;106665;1276;22629;-70
2023/02/22 04:06:09;;;;;;;7.50;4.90;;;;;;;6.36;78.74;95438.80;106572;1276;22516;-70
2023/02/22 04:08:38;;;;;;;5.80;4.10;;;;;;;6.36;78.80;95442.13;106567;1276;22653;-70
2023/02/22 04:11:06;;;;;;;6.50;4.20;;;;;;;6.33;78.55;95442.66;106543;1276;22528;-70
2023/02/22 04:13:34;;;;;;;6.40;4.60;;;;;;;6.32;78.57;95445.98;106576;1276;22532;-70
2023/02/22 04:16:03;;;;;;;6.10;4.80;;;;;;;6.36;78.54;95449.80;106555;1276;22649;-70
2023/02/22 04:18:31;;;;;;;16.40;8.70;;;;;;;6.37;78.64;95448.23;106598;1276;22653;-70
2023/02/22 04:21:00;;;;;;;15.90;7.90;;;;;;;6.36;78.51;95445.27;106589;1276;25389;-70
2023/02/22 04:23:33;;;;;;;;;;;;;;;6.29;78.28;95451.06;106591;1276;22697;-69
2023/02/22 04:26:02;;;;;;;8.80;4.50;;;;;;;6.21;78.16;95455.64;106621;1276;25416;-71
2023/02/22 04:28:30;;;;;;;7.30;5.20;;;;;;;6.05;78.38;95457.97;106626;1276;23145;-68
2023/02/22 04:31:19;;;;;;;9.20;5.20;;;;;;;6.01;78.82;95463.91;106549;1267;22520;-70
2023/02/22 04:33:49;;;;;;;7.00;5.50;;;;;;;6.01;78.86;95464.45;106649;1272;24050;-78
2023/02/22 04:36:22;;;;;;;6.60;4.70;;;;;;;6.03;78.92;95462.16;106593;1276;24268;-74
2023/02/22 04:38:50;;;;;;;8.60;5.70;;;;;;;5.98;78.48;95460.79;106429;1276;22788;-76
2023/02/22 04:41:19;;;;;;;8.00;5.20;;;;;;;5.94;78.81;95463.40;106569;1276;24377;-77
2023/02/22 04:43:47;;;;;;;8.80;5.30;;;;;;;5.93;79.09;95462.86;106678;1276;22527;-77
2023/02/22 04:46:21;;;;;;;6.70;5.40;;;;;;;5.94;79.11;95458.52;106578;1276;25594;-77
2023/02/22 04:48:49;;;;;;;6.80;5.20;;;;;;;5.95;79.00;95460.45;106606;1265;25416;-77
2023/02/22 04:51:21;;;;;;;7.50;4.70;;;;;;;5.94;79.52;95459.55;106588;1276;24228;-77
2023/02/22 04:54:12;;;;;;;6.40;4.40;;;;;;;5.90;79.33;95454.50;106586;1276;22527;-75
2023/02/22 04:56:46;;;;;;;7.30;4.90;;;;;;;5.85;79.41;95455.55;106812;1276;26103;-77
2023/02/22 04:59:14;;;;;;;7.50;5.40;;;;;;;5.81;79.27;95460.61;106598;1276;24441;-77
2023/02/22 05:01:48;;;;;;;9.40;5.80;;;;;;;5.81;79.25;95462.02;106604;1276;22790;-77
2023/02/22 05:04:16;;;;;;;7.60;5.10;;;;;;;5.81;79.24;95464.11;106555;1276;22526;-77
2023/02/22 05:06:44;;;;;;;11.60;5.40;;;;;;;5.78;79.46;95468.14;106585;1276;22807;-77
2023/02/22 05:09:13;;;;;;;9.00;5.90;;;;;;;5.76;79.39;95472.85;106616;1276;22548;-77
2023/02/22 05:11:41;;;;;;;7.60;4.60;;;;;;;5.75;79.28;95470.94;106647;1276;22527;-77
2023/02/22 05:14:11;;;;;;;6.60;4.70;;;;;;;5.73;78.66;95472.85;106549;1276;26628;-77
2023/02/22 05:16:40;;;;;;;11.00;4.50;;;;;;;5.72;78.14;95471.11;106566;1276;24202;-77
2023/02/22 05:19:08;;;;;;;11.50;4.70;;;;;;;5.71;77.24;95470.75;106665;1276;22543;-77
2023/02/22 05:21:36;;;;;;;7.70;3.90;;;;;;;5.69;76.67;95475.48;106528;1276;22534;-77
2023/02/22 05:24:05;;;;;;;5.60;3.20;;;;;;;5.66;75.57;95476.02;106579;1276;22523;-77
2023/02/22 05:26:33;;;;;;;9.60;3.40;;;;;;;5.63;74.67;95473.39;106579;1276;24476;-77
2023/02/22 05:29:01;;;;;;;9.40;3.50;;;;;;;5.64;74.46;95479.86;106563;1276;22520;-76
2023/02/22 05:31:30;;;;;;;8.70;4.10;;;;;;;5.62;73.41;95483.17;106585;1276;22640;-77
2023/02/22 05:33:58;;;;;;;6.20;3.00;;;;;;;5.61;73.49;95486.84;106592;1253;24185;-77
2023/02/22 05:36:26;;;;;;;7.20;3.20;;;;;;;5.62;73.00;95485.79;106593;1276;26073;-77
2023/02/22 05:38:55;;;;;;;9.30;3.80;;;;;;;5.63;73.02;95492.77;106589;1276;22644;-77
2023/02/22 05:41:23;;;;;;;7.40;3.90;;;;;;;5.63;72.06;95492.41;106663;1270;24444;-77
2023/02/22 05:43:51;;;;;;;12.20;3.60;;;;;;;5.62;71.72;95492.42;106596;1276;24421;-78
2023/02/22 05:46:20;;;;;;;9.30;3.90;;;;;;;5.59;71.29;95498.17;106637;1276;24231;-77
2023/02/22 05:48:48;;;;;;;7.20;3.90;;;;;;;5.60;71.46;95500.27;106622;1276;22786;-77
2023/02/22 05:51:18;;;;;;;11.30;4.70;;;;;;;5.58;71.55;95505.86;106643;1276;23264;-77
2023/02/22 05:53:47;;;;;;;7.80;3.80;;;;;;;5.57;71.36;95509.52;106682;1276;22534;-77
2023/02/22 05:56:22;;;;;;;10.10;5.00;;;;;;;5.56;71.47;95513.89;106609;1276;22530;-77
2023/02/22 05:58:50;;;;;;;13.30;3.70;;;;;;;5.54;70.96;95518.76;106555;1276;24366;-78
2023/02/22 06:01:19;;;;;;;6.70;3.60;;;;;;;5.51;70.74;95518.26;106623;1276;22649;-74
2023/02/22 06:03:49;;;;;;;11.70;3.80;;;;;;;5.49;70.89;95526.62;106675;1276;22593;-77
2023/02/22 06:06:19;;;;;;;10.50;4.30;;;;;;;5.48;70.75;95530.27;106554;1276;25415;-69
2023/02/22 06:08:49;;;;;;;9.00;3.70;;;;;;;5.48;70.10;95531.33;106683;1276;22540;-78
2023/02/22 06:11:18;;;;;;;6.50;3.10;;;;;;;5.46;69.97;95532.20;106579;1276;24314;-69
2023/02/22 06:13:51;;;;;;;4.60;2.50;;;;;;;5.45;69.56;95534.29;106621;1276;24374;-72
2023/02/22 06:16:21;;;;;;;5.60;2.30;;;;;;;5.42;68.51;95539.88;106681;1276;22628;-69
2023/02/22 06:18:49;;;;;;;5.00;2.30;;;;;;;5.41;68.67;95538.31;106933;1276;22645;-69
2023/02/22 06:21:17;;;;;;;6.50;2.40;;;;;;;5.42;68.99;95541.11;106726;1276;22837;-78
2023/02/22 06:23:46;;;;;;;5.40;2.20;;;;;;;5.45;69.31;95539.35;106837;1276;25271;-74
2023/02/22 06:26:16;;;;;;;7.00;2.70;;;;;;;5.46;69.55;95545.47;106852;1276;24241;-74
2023/02/22 06:28:48;;;;;;;7.60;2.50;;;;;;;5.45;69.40;95550.70;106799;1276;25465;-73
2023/02/22 06:31:16;;;;;;;5.30;2.70;;;;;;;5.47;69.39;95549.82;106616;1276;24367;-73
2023/02/22 06:33:45;;;;;;;6.00;3.30;;;;;;;5.48;69.05;95554.54;106598;1276;24186;-81
2023/02/22 06:36:13;;;;;;;10.10;3.70;;;;;;;5.50;68.93;95558.20;106550;1254;23258;-79
2023/02/22 06:38:41;;;;;;;4.90;2.70;;;;;;;5.54;68.49;95562.02;106518;1276;24353;-72
2023/02/22 06:41:10;;;;;;;5.20;2.70;;;;;;;5.56;67.78;95568.15;106593;1276;25357;-76
2023/02/22 06:43:38;;;;;;;7.60;2.80;;;;;;;5.58;67.50;95568.84;106815;1276;22531;-75
2023/02/22 06:46:11;;;;;;;10.60;3.10;;;;;;;5.60;67.00;95566.05;106818;1275;22545;-76
2023/02/22 06:48:39;;;;;;;6.30;2.50;;;;;;;5.62;66.87;95571.82;106822;1276;25610;-71
2023/02/22 06:51:08;;;;;;;9.40;3.00;;;;;;;5.63;66.79;95570.42;106520;1276;24040;-70
2023/02/22 06:53:37;;;;;;;12.40;4.70;;;;;;;5.67;67.18;95575.66;106706;1276;22530;-73
2023/02/22 06:56:05;;;;;;;8.50;3.50;;;;;;;5.70;66.86;95574.60;106680;1276;24869;-77
2023/02/22 06:58:34;;;;;;;10.60;3.40;;;;;;;5.71;66.26;95573.20;106521;1276;25478;-74
2023/02/22 07:01:02;;;;;;;11.20;4.30;;;;;;;5.72;66.11;95575.48;106572;1276;22516;-69
2023/02/22 07:03:31;;;;;;;18.30;7.80;;;;;;;5.72;65.89;95575.30;106608;1276;25498;-66
2023/02/22 07:05:59;;;;;;;14.20;7.60;;;;;;;5.74;66.32;95577.75;106554;1276;22809;-71
2023/02/22 07:08:28;;;;;;;13.40;4.40;;;;;;;5.76;66.43;95582.45;106671;1276;22632;-71
2023/02/22 07:10:56;;;;;;;6.80;3.10;;;;;;;5.77;66.60;95587.34;106962;1276;22532;-67
2023/02/22 07:13:24;;;;;;;18.00;7.90;;;;;;;5.79;66.44;95584.55;106769;1276;22524;-70
2023/02/22 07:15:52;;;;;;;27.30;14.20;;;;;;;5.78;66.34;95586.47;106787;1276;22536;-68
2023/02/22 07:18:20;;;;;;;25.50;13.80;;;;;;;5.79;66.66;95588.73;106785;1275;24372;-68
2023/02/22 07:20:49;;;;;;;22.60;9.00;;;;;;;5.81;66.91;95589.44;106858;1276;22585;-69
2023/02/22 07:23:17;;;;;;;25.60;10.90;;;;;;;5.81;66.83;95591.01;106824;1276;25331;-67
2023/02/22 07:25:46;;;;;;;23.80;9.80;;;;;;;5.76;66.55;95599.20;106814;1276;22522;-69
2023/02/22 07:28:14;;;;;;;15.80;8.10;;;;;;;5.70;66.45;95604.45;106746;1276;24367;-70
2023/02/22 07:30:43;;;;;;;14.70;6.70;;;;;;;5.58;66.45;95605.32;106880;1276;24200;-70
2023/02/22 07:33:11;;;;;;;13.60;6.60;;;;;;;5.54;66.80;95606.88;106744;1276;22540;-68
2023/02/22 07:35:46;;;;;;;10.10;5.40;;;;;;;5.51;67.21;95603.38;106843;1272;25328;-69
2023/02/22 07:38:16;;;;;;;10.60;5.40;;;;;;;5.54;67.51;95599.38;106730;1276;24186;-68
2023/02/22 07:40:44;;;;;;;6.00;3.50;;;;;;;5.57;67.58;95599.21;106852;1276;22598;-70
2023/02/22 07:43:20;;;;;;;8.50;3.40;;;;;;;5.58;67.49;95600.77;106740;1276;24702;-67
2023/02/22 07:45:50;;;;;;;14.50;8.20;;;;;;;5.59;67.34;95598.17;106812;1276;24330;-69
2023/02/22 07:48:21;;;;;;;10.60;4.60;;;;;;;5.66;67.22;95599.56;106858;1276;24333;-68
2023/02/22 07:50:49;;;;;;;20.60;12.10;;;;;;;5.74;67.27;95604.45;106827;1276;23114;-69
2023/02/22 07:53:20;;;;;;;10.20;5.50;;;;;;;5.82;67.03;95603.05;106883;1276;24218;-68
2023/02/22 07:55:49;;;;;;;6.50;3.70;;;;;;;5.89;66.37;95592.39;106825;1276;22656;-72
2023/02/22 07:58:22;;;;;;;6.70;2.80;;;;;;;5.92;65.77;95587.52;106588;1266;22532;-70
2023/02/22 08:00:50;;;;;;;6.00;2.60;;;;;;;6.02;65.59;95589.46;106538;1266;24256;-74
2023/02/22 08:03:22;;;;;;;8.30;3.80;;;;;;;6.16;65.78;95586.30;106541;1276;25284;-70
2023/02/22 08:05:53;;;;;;;9.40;3.40;;;;;;;6.30;65.25;95578.23;106490;1276;22533;-75
2023/02/22 08:08:22;;;;;;;10.90;3.80;;;;;;;6.40;64.77;95578.91;106566;1276;22649;-75
2023/02/22 08:10:51;;;;;;;6.70;3.20;;;;;;;6.56;65.16;95577.81;106509;1276;24491;-74
2023/02/22 08:13:21;;;;;;;10.30;3.10;;;;;;;6.77;64.89;95578.25;106513;1276;22523;-71
2023/02/22 08:15:51;;;;;;;13.60;10.00;;;;;;;6.88;63.85;95580.31;106584;1253;25417;-72
2023/02/22 08:18:21;;;;;;;10.00;3.90;;;;;;;6.94;63.48;95580.80;106587;1275;24049;-68
2023/02/22 08:20:51;;;;;;;10.30;3.30;;;;;;;6.99;63.34;95587.09;106572;1276;25204;-70
2023/02/22 08:23:24;;;;;;;8.60;3.30;;;;;;;7.04;63.71;95587.23;106527;1276;24438;-71
2023/02/22 08:25:52;;;;;;;8.70;2.70;;;;;;;7.04;62.88;95586.70;106629;1276;22526;-78
2023/02/22 08:28:23;;;;;;;5.80;2.60;;;;;;;7.02;61.31;95587.40;106704;1276;25325;-78
2023/02/22 08:30:51;;;;;;;8.50;3.10;;;;;;;6.98;60.87;95584.80;106542;1276;22551;-78
2023/02/22 08:33:20;;;;;;;16.40;3.70;;;;;;;6.99;61.74;95583.59;106629;1276;23937;-73
2023/02/22 08:35:50;;;;;;;8.70;3.20;;;;;;;7.07;62.14;95584.41;106627;1260;24244;-71
2023/02/22 08:38:26;;;;;;;11.50;4.50;;;;;;;7.11;61.69;95581.06;106550;1276;24430;-68
2023/02/22 08:40:55;;;;;;;7.50;2.80;;;;;;;7.13;61.71;95581.58;106595;1276;22531;-71
2023/02/22 08:43:23;;;;;;;6.20;3.10;;;;;;;7.20;61.04;95580.85;106654;1276;25268;-76
2023/02/22 08:45:52;;;;;;;6.30;2.60;;;;;;;7.26;60.59;95578.02;106626;1276;22523;-71
2023/02/22 08:48:24;;;;;;;7.20;3.20;;;;;;;7.31;59.95;95576.41;106616;1276;23908;-73
2023/02/22 08:50:52;;;;;;;7.00;2.90;;;;;;;7.40;59.51;95577.58;106497;1276;22533;-73
2023/02/22 08:53:20;;;;;;;7.60;2.90;;;;;;;7.54;60.22;95576.41;106524;1276;24934;-78
2023/02/22 08:55:48;;;;;;;7.60;2.90;;;;;;;7.72;58.64;95569.29;106566;1276;24196;-74
2023/02/22 08:58:16;;;;;;;6.70;3.10;;;;;;;7.90;58.65;95572.82;106611;1276;22527;-80
2023/02/22 09:00:46;;;;;;;6.60;3.30;;;;;;;8.06;58.13;95573.37;106605;1266;25238;-74
2023/02/22 09:03:14;;;;;;;10.10;2.60;;;;;;;8.19;57.99;95573.96;105985;1276;614775;-76
2023/02/22 09:05:43;;;;;;;7.10;3.40;;;;;;;8.25;56.09;95571.44;106765;1276;22646;-75
2023/02/22 09:08:12;;;;;;;15.50;3.00;;;;;;;8.31;55.57;95573.66;106710;1277;22626;-71
2023/02/22 09:10:40;;;;;;;11.20;3.20;;;;;;;8.45;55.32;95574.42;106604;1277;25520;-75
2023/02/22 09:13:08;;;;;;;12.30;3.70;;;;;;;8.52;54.25;95580.49;106603;1277;22743;-81
2023/02/22 09:15:38;;;;;;;9.40;3.40;;;;;;;8.38;53.33;95584.11;106364;1276;24384;-70
2023/02/22 09:18:08;;;;;;;7.40;3.90;;;;;;;8.23;53.80;95583.91;106684;1276;24219;-76
2023/02/22 09:20:37;;;;;;;10.90;4.20;;;;;;;8.13;54.32;95581.73;106504;1276;22524;-81
2023/02/22 09:23:08;;;;;;;7.40;3.20;;;;;;;8.06;53.89;95583.88;106686;1276;23146;-77
2023/02/22 09:25:39;;;;;;;7.20;3.30;;;;;;;8.15;54.84;95576.62;106458;1276;22529;-70
2023/02/22 09:28:08;;;;;;;9.30;3.80;;;;;;;8.33;55.02;95576.62;106620;1276;26223;-77
2023/02/22 09:30:36;;;;;;;10.20;4.40;;;;;;;8.63;54.85;95578.80;106587;1276;22683;-85
2023/02/22 09:33:16;;;;;;;5.10;2.70;;;;;;;8.71;53.40;95580.80;106522;1276;22535;-73
2023/02/22 09:35:48;;;;;;;9.20;3.80;;;;;;;8.62;52.95;95578.27;106486;1276;25325;-82
2023/02/22 09:38:24;;;;;;;9.10;4.40;;;;;;;8.56;52.04;95576.77;106406;1276;24218;-71
2023/02/22 09:41:06;;;;;;;9.60;4.10;;;;;;;8.44;52.19;95577.23;106399;1276;25438;-70
2023/02/22 09:44:05;;;;;;;10.70;4.10;;;;;;;8.30;52.11;95579.64;106384;1276;25306;-70
2023/02/22 09:46:40;;;;;;;8.60;3.50;;;;;;;8.28;52.11;95579.99;106661;1276;22649;-75
2023/02/22 09:49:14;;;;;;;10.10;3.30;;;;;;;8.49;52.15;95575.27;106863;1276;22526;-75
2023/02/22 09:51:59;;;;;;;10.60;3.80;;;;;;;8.71;52.38;95579.23;106860;1276;22526;-70
2023/02/22 09:54:33;;;;;;;6.30;3.00;;;;;;;9.10;51.74;95576.09;106758;1276;24276;-73
2023/02/22 09:57:07;;;;;;;8.20;3.20;;;;;;;9.42;50.32;95573.38;106773;1272;22543;-75
2023/02/22 09:59:44;;;;;;;7.00;3.10;;;;;;;9.72;49.47;95569.42;106582;1276;24195;-77
2023/02/22 10:02:31;;;;;;;7.10;3.60;;;;;;;10.00;48.14;95567.56;106575;1277;23882;-74
2023/02/22 10:05:08;;;;;;;9.00;3.40;;;;;;;10.03;47.32;95566.98;106644;1277;23883;-76
2023/02/22 10:07:46;;;;;;;8.60;3.60;;;;;;;9.99;47.70;95564.62;106697;1277;22576;-73
2023/02/22 10:10:19;;;;;;;9.40;3.90;;;;;;;10.01;48.51;95561.75;106742;1277;25225;-72
2023/02/22 10:13:22;;;;;;;5.40;3.10;;;;;;;10.13;48.47;95557.14;106768;1277;24237;-72
2023/02/22 10:16:15;;;;;;;6.80;3.10;;;;;;;10.31;48.19;95554.40;106708;1266;24258;-74
2023/02/22 10:18:56;;;;;;;7.80;3.50;;;;;;;10.42;48.05;95547.69;106663;1277;23823;-74
2023/02/22 10:22:03;;;;;;;7.20;3.00;;;;;;;10.56;47.96;95553.41;106594;1277;24263;-72
2023/02/22 10:24:50;;;;;;;7.40;3.10;;;;;;;10.63;47.57;95551.52;107299;1277;25310;-73
2023/02/22 10:27:27;;;;;;;12.10;3.60;;;;;;;10.69;46.75;95548.07;106254;1277;22665;-73
2023/02/22 10:30:07;;;;;;;7.40;3.10;;;;;;;10.71;45.74;95544.33;106461;1277;25485;-74
2023/02/22 10:33:14;;;;;;;9.20;3.30;;;;;;;10.59;46.66;95541.91;106462;1277;22571;-73
2023/02/22 10:35:43;;;;;;;7.30;4.50;;;;;;;10.52;46.04;95543.64;106472;1277;24258;-73
2023/02/22 10:38:22;;;;;;;8.10;3.30;;;;;;;10.37;46.15;95540.57;106537;1277;22523;-73
2023/02/22 10:41:08;;;;;;;6.50;2.90;;;;;;;10.60;46.97;95532.77;106493;1277;22558;-73
2023/02/22 10:43:39;;;;;;;7.20;2.30;;;;;;;11.02;45.92;95532.58;106549;1277;24193;-72
2023/02/22 10:46:12;;;;;;;5.60;2.50;;;;;;;11.44;46.33;95524.10;106374;1277;22530;-73
2023/02/22 10:48:44;;;;;;;7.80;3.00;;;;;;;11.96;44.79;95518.46;109520;1277;25597;-70
2023/02/22 10:51:12;;;;;;;7.20;3.10;;;;;;;12.20;43.31;95511.86;106301;1277;25327;-73
2023/02/22 10:53:40;;;;;;;7.40;3.70;;;;;;;12.59;42.61;95510.29;106483;1277;24504;-73
2023/02/22 10:56:14;;;;;;;6.50;2.90;;;;;;;12.77;41.52;95510.83;106496;1277;25571;-73
2023/02/22 10:59:03;;;;;;;7.80;3.60;;;;;;;13.04;42.01;95506.70;106487;1277;22604;-73
2023/02/22 11:01:31;;;;;;;5.20;3.00;;;;;;;13.29;41.61;95503.86;106490;1277;22523;-74
2023/02/22 11:04:15;;;;;;;6.60;3.30;;;;;;;13.46;40.52;95505.11;106527;1277;25287;-73
2023/02/22 11:06:47;;;;;;;6.20;2.90;;;;;;;13.74;40.13;95499.80;106451;1277;25478;-73
2023/02/22 11:09:17;;;;;;;12.60;4.10;;;;;;;14.17;39.90;95498.55;106558;1277;24810;-74
2023/02/22 11:11:47;;;;;;;6.80;3.10;;;;;;;14.43;38.76;95497.11;106612;1277;22525;-74
2023/02/22 11:14:28;;;;;;;6.80;3.60;;;;;;;14.77;37.96;95495.73;106434;1277;22582;-74
2023/02/22 11:16:57;;;;;;;6.10;2.90;;;;;;;14.96;37.30;95497.73;106586;1277;25217;-73
2023/02/22 11:19:31;;;;;;;8.60;3.70;;;;;;;15.08;37.89;95495.83;106558;1277;22777;-72
2023/02/22 11:22:20;;;;;;;9.30;3.50;;;;;;;15.31;37.12;95493.70;106581;1277;22639;-73
2023/02/22 11:24:58;;;;;;;7.00;3.50;;;;;;;15.13;36.50;95501.68;106515;1277;24249;-73
2023/02/22 11:27:32;;;;;;;8.30;3.50;;;;;;;15.01;36.89;95500.17;106579;1277;24394;-74
2023/02/22 11:30:28;;;;;;;4.80;2.80;;;;;;;14.78;38.11;95498.71;106519;1277;22579;-74
2023/02/22 11:33:20;;;;;;;10.70;3.30;;;;;;;14.34;37.38;95500.46;106588;1277;22634;-74
2023/02/22 11:35:51;;;;;;;;;;;;;;;13.73;38.90;95503.36;106594;1277;22631;-75
2023/02/22 11:38:22;;;;;;;5.90;3.00;;;;;;;13.42;40.21;95504.16;106612;1277;23527;-74
2023/02/22 11:41:17;;;;;;;4.30;3.00;;;;;;;13.24;40.46;95507.68;106535;1277;22785;-74
2023/02/22 11:43:48;;;;;;;6.10;4.00;;;;;;;12.89;41.17;95506.08;106429;1277;24187;-74
2023/02/22 11:46:26;;;;;;;9.40;3.90;;;;;;;12.47;41.33;95503.02;106541;1277;22542;-73
2023/02/22 11:49:10;;;;;;;6.00;3.00;;;;;;;12.01;43.08;95504.23;106585;1277;22554;-74
2023/02/22 11:52:09;;;;;;;6.20;3.10;;;;;;;11.95;43.55;95498.41;106564;1277;22786;-73
2023/02/22 11:54:52;;;;;;;7.10;3.20;;;;;;;11.68;43.87;95507.33;106549;1277;22779;-74
2023/02/22 11:57:20;;;;;;;;;;;;;;;11.41;44.20;95505.84;106559;1277;23112;-74
2023/02/22 12:00:14;;;;;;;8.30;3.80;;;;;;;11.24;45.26;95501.30;106518;1277;22639;-74